Preview of NWS' New Version of Forecast
This preview is not operational and should not be used for support decisions.

Terminal Aerodrome Forecast (TAF)

Issued by National Weather Service (NWS)

                            
000
FTUS42 KKEY 212329
TAFEYW
TAF
KEYW 212329Z 2200/2224 04008KT P6SM FEW035
     FM220600 07011KT P6SM SCT045
     FM221300 09015G22KT P6SM FEW030 BKN045
     FM221800 10018G25KT P6SM SCT025 BKN050=